Time;durP1;ratioP1;P1;durP2;ratioP2;P2;SDS_P1;SDS_P2;PMS_P1;PMS_P2;Temp;Humidity;BMP_temperature;BMP_pressure;BME280_temperature;BME280_humidity;BME280_pressure;Samples;Min_cycle;Max_cycle;Signal;HPM_P1;HPM_P2
2023/03/20 00:01:23;;;;;;;2.92;2.60;;;9.60;99.90;;;;;;4348210;28;9999953;-74
2023/03/20 00:04:00;;;;;;;2.83;2.60;;;9.60;99.90;;;;;;5034766;28;20029;-75
2023/03/20 00:06:37;;;;;;;4.30;3.00;;;9.50;99.90;;;;;;5057501;28;20029;-75
2023/03/20 00:09:12;;;;;;;4.93;3.10;;;9.50;99.90;;;;;;5046801;28;20037;-74
2023/03/20 00:11:52;;;;;;;3.97;3.00;;;9.50;99.90;;;;;;5043551;28;20118;-74
2023/03/20 00:14:27;;;;;;;3.97;3.40;;;9.40;99.90;;;;;;5044597;28;20060;-74
2023/03/20 00:17:00;;;;;;;4.10;3.20;;;9.40;99.90;;;;;;5056715;28;20037;-74
2023/03/20 00:19:34;;;;;;;4.57;3.30;;;9.40;99.90;;;;;;5032669;28;20033;-74
2023/03/20 00:22:09;;;;;;;5.18;3.63;;;9.40;99.90;;;;;;5046161;28;20037;-74
2023/03/20 00:24:44;;;;;;;4.13;3.40;;;9.40;99.90;;;;;;5049701;28;20078;-74
2023/03/20 00:27:13;;;;;;;4.13;3.65;;;9.30;99.90;;;;;;5060793;28;20053;-74
2023/03/20 00:29:49;;;;;;;4.65;3.63;;;9.30;99.90;;;;;;5041235;28;20033;-74
2023/03/20 00:32:21;;;;;;;5.00;3.33;;;9.30;99.90;;;;;;5044672;28;20029;-75
2023/03/20 00:34:55;;;;;;;4.25;3.20;;;9.30;99.90;;;;;;5047591;28;20029;-75
2023/03/20 00:37:21;;;;;;;3.50;3.10;;;9.30;99.90;;;;;;5039696;28;20029;-75
2023/03/20 00:39:47;;;;;;;3.65;3.30;;;9.30;99.90;;;;;;5043505;28;20079;-74
2023/03/20 00:42:21;;;;;;;4.63;3.08;;;9.30;99.90;;;;;;5042376;28;20525;-75
2023/03/20 00:44:53;;;;;;;3.35;3.05;;;9.40;99.90;;;;;;5038308;28;20079;-75
2023/03/20 00:47:25;;;;;;;3.78;3.20;;;9.40;99.90;;;;;;5045951;28;20024;-74
2023/03/20 00:49:54;;;;;;;4.20;3.75;;;9.40;99.90;;;;;;5045953;28;20040;-75
2023/03/20 00:52:29;;;;;;;4.65;4.10;;;9.40;99.90;;;;;;5040195;28;20115;-75
2023/03/20 00:55:01;;;;;;;5.00;4.20;;;9.40;99.90;;;;;;5046724;28;20052;-75
2023/03/20 00:57:40;;;;;;;4.75;4.07;;;9.40;99.90;;;;;;5056190;28;20021;-74
2023/03/20 01:00:29;;;;;;;5.38;4.40;;;9.40;99.90;;;;;;5047548;28;20086;-75
2023/03/20 01:03:04;;;;;;;7.18;3.90;;;9.40;99.90;;;;;;5038216;28;20037;-75
2023/03/20 01:05:39;;;;;;;5.40;3.85;;;9.40;99.90;;;;;;5050156;28;20519;-74
2023/03/20 01:08:20;;;;;;;5.07;3.65;;;9.40;99.90;;;;;;5049103;28;20049;-75
2023/03/20 01:10:57;;;;;;;3.78;3.42;;;9.30;99.90;;;;;;5032670;28;20059;-75
2023/03/20 01:13:34;;;;;;;3.70;3.30;;;9.30;99.90;;;;;;5048412;28;20100;-74
2023/03/20 01:16:06;;;;;;;4.10;3.47;;;9.30;99.90;;;;;;5044526;28;20033;-74
2023/03/20 01:18:34;;;;;;;4.97;3.65;;;9.30;99.90;;;;;;5042728;28;20028;-74
2023/03/20 01:21:01;;;;;;;5.13;3.88;;;9.30;99.90;;;;;;5046425;28;20048;-74
2023/03/20 01:23:34;;;;;;;4.90;3.72;;;9.30;99.90;;;;;;5049825;28;20456;-74
2023/03/20 01:26:03;;;;;;;5.53;3.80;;;9.30;99.90;;;;;;5055860;28;20631;-74
2023/03/20 01:28:30;;;;;;;4.22;3.45;;;9.30;99.90;;;;;;5054308;28;20044;-74
2023/03/20 01:31:07;;;;;;;4.82;3.83;;;9.30;99.90;;;;;;5047965;28;20119;-75
2023/03/20 01:33:39;;;;;;;5.15;4.07;;;9.30;99.90;;;;;;5049884;28;20020;-74
2023/03/20 01:36:14;;;;;;;6.25;3.90;;;9.30;99.90;;;;;;5038641;28;20022;-74
2023/03/20 01:38:42;;;;;;;4.80;3.97;;;9.30;99.90;;;;;;5033341;28;20035;-74
2023/03/20 01:41:16;;;;;;;6.00;4.00;;;9.30;99.90;;;;;;5046834;28;20174;-74
2023/03/20 01:43:52;;;;;;;5.15;4.10;;;9.30;99.90;;;;;;5036804;28;20033;-74
2023/03/20 01:46:30;;;;;;;4.85;4.10;;;9.30;99.90;;;;;;5054698;28;20063;-74
2023/03/20 01:49:06;;;;;;;6.38;4.10;;;9.30;99.90;;;;;;5036923;28;20041;-74
2023/03/20 01:51:37;;;;;;;6.28;3.67;;;9.20;99.90;;;;;;5036780;28;20051;-74
2023/03/20 01:54:23;;;;;;;4.65;4.15;;;9.30;99.90;;;;;;5044913;28;20568;-74
2023/03/20 01:57:16;;;;;;;5.38;4.38;;;9.20;99.90;;;;;;5042143;28;20112;-74
2023/03/20 01:59:43;;;;;;;4.90;4.40;;;9.30;99.90;;;;;;5038260;28;20045;-74
2023/03/20 02:02:23;;;;;;;7.35;4.50;;;9.20;99.90;;;;;;5050879;28;20035;-74
2023/03/20 02:05:02;;;;;;;5.75;4.75;;;9.20;99.90;;;;;;5053714;28;20025;-74
2023/03/20 02:07:39;;;;;;;7.70;4.78;;;9.20;99.90;;;;;;5042490;28;20418;-75
2023/03/20 02:10:20;;;;;;;7.00;5.05;;;9.10;99.90;;;;;;5046246;28;20397;-75
2023/03/20 02:12:54;;;;;;;6.50;5.18;;;9.10;99.90;;;;;;5057758;28;20033;-74
2023/03/20 02:15:28;;;;;;;5.47;4.80;;;9.10;99.90;;;;;;5043999;28;20037;-74
2023/03/20 02:18:00;;;;;;;8.57;4.97;;;9.10;99.90;;;;;;5046678;28;20112;-75
2023/03/20 02:21:00;;;;;;;4.85;4.35;;;9.10;99.90;;;;;;5044005;28;20359;-75
2023/03/20 02:24:13;;;;;;;7.55;4.70;;;9.00;99.90;;;;;;5007535;28;20036;-74
2023/03/20 02:26:57;;;;;;;4.75;4.30;;;9.00;99.90;;;;;;5044656;28;20045;-75
2023/03/20 02:29:44;;;;;;;5.95;4.50;;;9.00;99.90;;;;;;5041995;28;20124;-75
2023/03/20 02:32:32;;;;;;;5.80;4.90;;;9.00;99.90;;;;;;5051134;28;20060;-74
2023/03/20 02:35:36;;;;;;;7.13;5.10;;;9.00;99.90;;;;;;5047347;28;20040;-75
2023/03/20 02:38:24;;;;;;;5.95;5.05;;;9.00;99.90;;;;;;5050407;28;20509;-75
2023/03/20 02:41:09;;;;;;;5.38;4.78;;;9.10;99.90;;;;;;5050129;28;20599;-74
2023/03/20 02:44:12;;;;;;;5.38;4.70;;;9.00;99.90;;;;;;5049238;28;20497;-75
2023/03/20 02:47:01;;;;;;;5.05;4.55;;;9.00;99.90;;;;;;5053845;28;20087;-75
2023/03/20 02:49:41;;;;;;;7.60;5.10;;;9.00;99.90;;;;;;5033338;28;20038;-75
2023/03/20 02:52:34;;;;;;;5.25;4.75;;;9.10;99.90;;;;;;5042180;28;20025;-74
2023/03/20 02:55:17;;;;;;;6.83;4.73;;;9.10;99.90;;;;;;5049846;28;20067;-75
2023/03/20 03:21:03;;;;;;;22.17;12.77;;;9.20;99.90;;;;;;5038426;28;20048;-75
2023/03/20 03:23:33;;;;;;;27.30;15.82;;;9.20;99.90;;;;;;5040144;28;20029;-75
2023/03/20 03:26:04;;;;;;;26.30;14.68;;;9.30;99.90;;;;;;5040133;28;20022;-75
2023/03/20 03:28:44;;;;;;;25.73;14.15;;;9.40;99.90;;;;;;5049821;28;20112;-75
2023/03/20 03:31:20;;;;;;;28.95;16.15;;;9.40;99.90;;;;;;5053766;28;20064;-75
2023/03/20 03:33:54;;;;;;;52.25;25.17;;;9.50;99.90;;;;;;5041964;28;20397;-75
2023/03/20 03:36:59;;;;;;;66.65;29.08;;;9.50;99.90;;;;;;5051395;28;20029;-75
2023/03/20 03:40:08;;;;;;;52.47;26.15;;;9.60;99.90;;;;;;5048483;28;20025;-75
2023/03/20 03:42:42;;;;;;;55.45;25.92;;;9.60;99.90;;;;;;5039684;28;20045;-75
2023/03/20 03:45:28;;;;;;;58.50;27.35;;;9.60;99.90;;;;;;5040660;28;20029;-75
2023/03/20 03:48:04;;;;;;;56.45;27.35;;;9.70;99.90;;;;;;5036955;28;20490;-75
2023/03/20 03:50:52;;;;;;;56.33;28.08;;;9.70;99.90;;;;;;5047399;28;20028;-75
2023/03/20 03:53:32;;;;;;;52.97;25.13;;;9.70;99.90;;;;;;5040519;28;20497;-75
2023/03/20 03:56:07;;;;;;;49.83;25.55;;;9.60;99.90;;;;;;5039733;28;20073;-75
2023/03/20 03:58:44;;;;;;;55.55;26.65;;;9.60;99.90;;;;;;5039994;28;21078;-75
2023/03/20 04:01:13;;;;;;;58.92;27.65;;;9.60;99.90;;;;;;5038906;28;20064;-75
2023/03/20 04:03:45;;;;;;;52.88;26.10;;;9.60;99.90;;;;;;5047366;28;20040;-75
2023/03/20 04:06:16;;;;;;;57.00;27.63;;;9.60;99.90;;;;;;5048524;28;20036;-75
2023/03/20 04:08:47;;;;;;;57.25;27.83;;;9.60;99.90;;;;;;5041446;28;20028;-75
2023/03/20 04:11:29;;;;;;;60.83;28.63;;;9.60;99.90;;;;;;5042769;28;20048;-75
2023/03/20 04:14:07;;;;;;;53.75;28.00;;;9.60;99.90;;;;;;5044949;28;20473;-75
2023/03/20 04:16:42;;;;;;;57.92;27.95;;;9.50;99.90;;;;;;5047702;28;20521;-75
2023/03/20 04:19:18;;;;;;;54.85;28.23;;;9.50;99.90;;;;;;5044365;28;20041;-75
2023/03/20 04:21:44;;;;;;;56.75;27.88;;;9.50;99.90;;;;;;5054017;28;20115;-75
2023/03/20 04:24:19;;;;;;;56.63;27.95;;;9.60;99.90;;;;;;5047203;28;20041;-76
2023/03/20 04:26:53;;;;;;;58.55;28.45;;;9.60;99.90;;;;;;5039208;28;20041;-75
2023/03/20 04:29:28;;;;;;;59.22;27.90;;;9.60;99.90;;;;;;5039109;28;20051;-75
2023/03/20 04:32:02;;;;;;;56.15;27.70;;;9.60;99.90;;;;;;5048367;28;20537;-75
2023/03/20 04:34:28;;;;;;;51.28;26.65;;;9.50;99.90;;;;;;5048745;28;20257;-75
2023/03/20 04:37:06;;;;;;;54.83;27.58;;;9.60;99.90;;;;;;5047518;28;20028;-75
2023/03/20 04:39:40;;;;;;;55.05;27.65;;;9.50;99.90;;;;;;5043870;28;20060;-74
2023/03/20 04:42:09;;;;;;;61.28;27.42;;;9.60;99.90;;;;;;5045311;28;20033;-74
2023/03/20 04:44:43;;;;;;;55.63;28.73;;;9.60;99.90;;;;;;5049895;28;20035;-74
2023/03/20 04:47:09;;;;;;;55.85;29.10;;;9.60;99.90;;;;;;5048461;28;20033;-74
2023/03/20 04:49:43;;;;;;;57.88;28.38;;;9.60;99.90;;;;;;5044312;28;20643;-74
2023/03/20 04:52:09;;;;;;;55.05;27.88;;;9.60;99.90;;;;;;5052065;28;20037;-74
2023/03/20 04:54:45;;;;;;;52.60;27.95;;;9.60;99.90;;;;;;5047145;28;20068;-74
2023/03/20 04:57:12;;;;;;;52.47;26.42;;;9.60;99.90;;;;;;5042996;28;20052;-73
2023/03/20 04:59:45;;;;;;;47.90;25.15;;;9.60;99.90;;;;;;5048517;28;20503;-74
2023/03/20 05:02:16;;;;;;;49.45;26.33;;;9.60;99.90;;;;;;5041387;28;20438;-74
2023/03/20 05:04:50;;;;;;;51.47;26.42;;;9.60;99.90;;;;;;5041596;28;20037;-74
2023/03/20 05:07:19;;;;;;;47.60;25.88;;;9.60;99.90;;;;;;5047639;28;20124;-74
2023/03/20 05:09:46;;;;;;;51.88;26.05;;;9.50;99.90;;;;;;5042397;28;20571;-74
2023/03/20 05:12:14;;;;;;;48.10;26.23;;;9.50;99.90;;;;;;5044258;28;20112;-74
2023/03/20 05:14:52;;;;;;;47.10;25.10;;;9.50;99.90;;;;;;5040577;28;20055;-74
2023/03/20 05:17:26;;;;;;;48.38;24.92;;;9.50;99.90;;;;;;5045539;28;20033;-74
2023/03/20 05:19:57;;;;;;;49.45;25.30;;;9.50;99.90;;;;;;5045368;28;20398;-74
2023/03/20 05:22:23;;;;;;;55.63;28.10;;;9.40;99.90;;;;;;5040660;28;20116;-74
2023/03/20 05:24:56;;;;;;;54.10;26.33;;;9.30;99.90;;;;;;5048905;28;20037;-74
2023/03/20 05:27:30;;;;;;;55.47;26.45;;;9.30;99.90;;;;;;5050252;28;20068;-74
2023/03/20 05:30:02;;;;;;;55.05;26.92;;;9.30;99.90;;;;;;5045998;28;20025;-74
2023/03/20 05:32:28;;;;;;;57.72;29.42;;;9.20;99.90;;;;;;5039308;28;20033;-75
2023/03/20 05:34:54;;;;;;;54.47;27.73;;;9.30;99.90;;;;;;5046835;28;20033;-75
2023/03/20 05:37:20;;;;;;;51.58;26.10;;;9.30;99.90;;;;;;5060637;28;20067;-75
2023/03/20 05:39:46;;;;;;;53.10;26.42;;;9.30;99.90;;;;;;5043146;28;20021;-75
2023/03/20 05:42:12;;;;;;;58.03;26.83;;;9.30;99.90;;;;;;5053166;28;20035;-75
2023/03/20 05:44:37;;;;;;;54.85;26.55;;;9.30;99.90;;;;;;5041232;28;20033;-75
2023/03/20 05:47:08;;;;;;;52.40;26.67;;;9.30;99.90;;;;;;5037239;28;20135;-74
2023/03/20 05:49:37;;;;;;;51.10;26.40;;;9.30;99.90;;;;;;5040547;28;20921;-71
2023/03/20 05:52:08;;;;;;;49.80;25.70;;;9.30;99.90;;;;;;5031115;28;20144;-70
2023/03/20 05:54:45;;;;;;;55.30;27.83;;;9.30;99.90;;;;;;5029304;28;20052;-70
2023/03/20 05:57:12;;;;;;;60.80;29.67;;;9.30;99.90;;;;;;5031593;28;20506;-70
2023/03/20 05:59:45;;;;;;;58.47;29.60;;;9.30;99.90;;;;;;5045552;28;20036;-71
2023/03/20 06:02:13;;;;;;;62.03;31.00;;;9.30;99.90;;;;;;5036523;28;20033;-70
2023/03/20 06:04:39;;;;;;;63.38;30.10;;;9.30;99.90;;;;;;5037934;28;20056;-71
2023/03/20 06:07:09;;;;;;;57.70;28.67;;;9.30;99.90;;;;;;5030403;28;20126;-71
2023/03/20 06:09:37;;;;;;;59.17;27.17;;;9.30;99.90;;;;;;5038256;28;20041;-70
2023/03/20 06:12:06;;;;;;;54.47;26.02;;;9.30;99.90;;;;;;5036242;28;20478;-71
2023/03/20 06:14:38;;;;;;;57.67;27.75;;;9.30;99.90;;;;;;5040404;28;20437;-70
2023/03/20 06:17:06;;;;;;;52.30;25.63;;;9.30;99.90;;;;;;5041290;28;20072;-70
2023/03/20 06:19:32;;;;;;;43.15;23.10;;;9.30;99.90;;;;;;5031503;28;20029;-70
2023/03/20 06:21:58;;;;;;;43.28;21.45;;;9.30;99.90;;;;;;5030736;28;20091;-70
2023/03/20 06:24:25;;;;;;;39.58;21.00;;;;;;;;;;5035555;28;20036;-71
2023/03/20 06:26:53;;;;;;;39.85;19.50;;;;;;;;;;5034528;28;20030;-70
2023/03/20 06:29:19;;;;;;;32.63;18.23;;;;;;;;;;5035031;28;20053;-71
2023/03/20 06:31:45;;;;;;;35.65;19.30;;;9.30;99.90;;;;;;5031907;28;20090;-70
2023/03/20 06:34:11;;;;;;;36.45;17.50;;;9.30;99.90;;;;;;5036912;28;20040;-70
2023/03/20 06:36:41;;;;;;;29.23;16.95;;;9.30;99.90;;;;;;5037804;28;20025;-70
2023/03/20 06:39:09;;;;;;;34.45;18.25;;;;;;;;;;5038289;28;20096;-70
2023/03/20 06:41:36;;;;;;;33.40;17.67;;;;;;;;;;5041354;28;20385;-70
2023/03/20 06:44:03;;;;;;;34.08;17.27;;;;;;;;;;5038009;28;20033;-70
2023/03/20 06:46:30;;;;;;;30.92;16.83;;;;;;;;;;5045741;28;20028;-70
2023/03/20 06:48:57;;;;;;;29.75;16.48;;;;;;;;;;5047946;28;20044;-70
2023/03/20 06:51:25;;;;;;;32.53;17.55;;;;;;;;;;5042616;28;20044;-71
2023/03/20 06:53:51;;;;;;;34.00;17.98;;;;;;;;;;5047695;28;20072;-70
2023/03/20 06:56:18;;;;;;;29.38;18.17;;;;;;;;;;5045599;28;20049;-71
2023/03/20 06:58:44;;;;;;;31.38;18.90;;;;;;;;;;5045328;28;20021;-70
2023/03/20 07:01:13;;;;;;;28.83;16.83;;;;;;;;;;5034327;28;20040;-71
2023/03/20 07:03:40;;;;;;;27.40;16.88;;;;;;;;;;5044961;28;20083;-71
2023/03/20 07:06:07;;;;;;;26.65;16.00;;;;;;;;;;5044765;28;20055;-71
2023/03/20 07:08:33;;;;;;;32.50;17.02;;;;;;;;;;5036736;28;20506;-71
2023/03/20 07:11:00;;;;;;;29.15;16.75;;;;;;;;;;5035203;28;20036;-70
2023/03/20 07:13:28;;;;;;;29.85;18.10;;;;;;;;;;5042846;28;20520;-70
2023/03/20 07:15:54;;;;;;;31.08;20.23;;;;;;;;;;5036094;28;20033;-70
2023/03/20 07:18:21;;;;;;;30.38;18.15;;;;;;;;;;5040549;28;20020;-70
2023/03/20 07:20:47;;;;;;;30.83;18.27;;;;;;;;;;5038570;28;20025;-70
2023/03/20 07:23:15;;;;;;;33.50;18.85;;;;;;;;;;5043184;28;20029;-70
2023/03/20 07:25:44;;;;;;;30.50;18.42;;;;;;;;;;5051669;28;20037;-70
2023/03/20 07:28:11;;;;;;;29.55;18.73;;;;;;;;;;5047322;28;20024;-70
2023/03/20 07:30:38;;;;;;;30.73;20.02;;;;;;;;;;5049808;28;20033;-70
2023/03/20 07:33:07;;;;;;;27.48;17.40;;;;;;;;;;5056246;28;20089;-70
2023/03/20 07:35:35;;;;;;;32.15;20.70;;;;;;;;;;5038760;28;20037;-70
2023/03/20 07:38:02;;;;;;;36.13;23.20;;;;;;;;;;5048794;28;20065;-70
2023/03/20 07:40:31;;;;;;;31.85;18.83;;;;;;;;;;5044082;28;20377;-70
2023/03/20 07:42:57;;;;;;;33.00;21.23;;;;;;;;;;5050830;28;20029;-70
2023/03/20 07:45:23;;;;;;;35.65;20.90;;;;;;;;;;5055530;28;20108;-70
2023/03/20 07:47:55;;;;;;;33.08;19.98;;;;;;;;;;5047498;28;20124;-70
2023/03/20 07:50:23;;;;;;;32.65;20.17;;;;;;;;;;5045191;28;20033;-70
2023/03/20 07:52:51;;;;;;;29.77;18.55;;;;;;;;;;5041752;28;20032;-70
2023/03/20 07:55:17;;;;;;;33.55;19.52;;;;;;;;;;5032923;28;20125;-70
2023/03/20 07:57:45;;;;;;;29.67;18.27;;;;;;;;;;5035610;28;20139;-70
2023/03/20 08:00:18;;;;;;;33.40;19.67;;;;;;;;;;5041251;28;20060;-69
2023/03/20 08:02:45;;;;;;;28.83;18.85;;;;;;;;;;5045287;28;20057;-69
2023/03/20 08:05:23;;;;;;;34.38;20.40;;;9.30;99.90;;;;;;5050781;28;20025;-69
2023/03/20 08:07:51;;;;;;;30.60;19.52;;;9.40;99.90;;;;;;5042638;28;20090;-69
2023/03/20 08:10:24;;;;;;;33.85;19.35;;;9.40;99.90;;;;;;5044332;28;20075;-69
2023/03/20 08:12:51;;;;;;;32.42;19.40;;;9.40;99.90;;;;;;5047149;28;20031;-69
2023/03/20 08:15:30;;;;;;;29.90;19.55;;;9.50;99.90;;;;;;5043564;28;20063;-69
2023/03/20 08:18:04;;;;;;;28.55;19.10;;;9.50;99.90;;;;;;5040538;28;20078;-68
2023/03/20 08:20:33;;;;;;;29.63;19.20;;;9.60;99.90;;;;;;5031473;28;21135;-69
2023/03/20 08:23:01;;;;;;;30.13;18.90;;;9.70;99.90;;;;;;5045155;28;20123;-69
2023/03/20 08:25:33;;;;;;;26.38;18.05;;;9.70;99.90;;;;;;5046199;28;20060;-69
2023/03/20 08:28:03;;;;;;;31.08;18.88;;;9.80;99.90;;;;;;5038650;28;20025;-70
2023/03/20 08:30:36;;;;;;;33.63;18.25;;;;;;;;;;5036531;28;20034;-69
2023/03/20 08:33:04;;;;;;;30.10;19.50;;;10.20;99.90;;;;;;5046721;28;20025;-70
2023/03/20 08:35:35;;;;;;;38.97;21.85;;;10.40;99.90;;;;;;5047514;28;20049;-69
2023/03/20 08:38:12;;;;;;;36.28;21.38;;;;;;;;;;5042205;28;20033;-68
2023/03/20 08:40:50;;;;;;;35.55;20.27;;;10.60;99.90;;;;;;5041246;28;20539;-68
2023/03/20 08:43:22;;;;;;;37.55;20.45;;;10.70;99.90;;;;;;5043516;28;20120;-67
2023/03/20 08:45:59;;;;;;;36.75;20.98;;;10.90;99.90;;;;;;5037720;28;20021;-68
2023/03/20 08:48:36;;;;;;;46.53;24.00;;;11.00;99.90;;;;;;5048222;28;20466;-68
2023/03/20 08:51:10;;;;;;;37.47;21.90;;;11.20;99.90;;;;;;5045842;28;20025;-67
2023/03/20 08:53:40;;;;;;;35.90;20.65;;;11.30;99.90;;;;;;5042836;28;20041;-68
2023/03/20 08:56:14;;;;;;;40.65;21.98;;;11.40;99.90;;;;;;5038301;28;20553;-68
2023/03/20 08:58:44;;;;;;;47.00;24.75;;;11.40;99.90;;;;;;5053971;28;20041;-67
2023/03/20 09:01:14;;;;;;;51.17;26.35;;;11.50;99.90;;;;;;5048165;28;20033;-68
2023/03/20 09:03:46;;;;;;;46.92;25.55;;;11.50;99.90;;;;;;5043851;28;20033;-68
2023/03/20 09:06:20;;;;;;;46.90;25.08;;;11.40;99.90;;;;;;5037782;28;20029;-67
2023/03/20 09:08:52;;;;;;;46.85;24.50;;;11.40;99.90;;;;;;5048135;28;20037;-67
2023/03/20 09:11:25;;;;;;;46.90;24.73;;;11.50;99.90;;;;;;5042571;28;20033;-67
2023/03/20 09:13:53;;;;;;;;;;;11.50;99.90;;;;;;5049565;28;20153;-68
2023/03/20 09:16:19;;;;;;;43.97;24.02;;;11.60;99.90;;;;;;5046658;28;19913;-69
2023/03/20 09:18:47;;;;;;;44.92;24.50;;;11.60;99.90;;;;;;5043739;28;20116;-68
2023/03/20 09:21:15;;;;;;;48.92;24.42;;;11.70;99.90;;;;;;5040366;28;20330;-69
2023/03/20 09:23:43;;;;;;;45.15;23.25;;;11.80;99.90;;;;;;5044072;28;20033;-68
2023/03/20 09:26:16;;;;;;;44.25;23.50;;;11.80;99.90;;;;;;5043222;28;20037;-68
2023/03/20 09:28:42;;;;;;;43.22;23.33;;;11.80;99.90;;;;;;5036890;28;21950;-68
2023/03/20 09:31:08;;;;;;;42.63;22.83;;;11.90;99.90;;;;;;5042773;28;20041;-67
2023/03/20 09:33:34;;;;;;;44.58;23.23;;;11.90;99.90;;;;;;5043865;28;20033;-68
2023/03/20 09:36:01;;;;;;;41.28;23.35;;;12.00;99.90;;;;;;5041121;28;20052;-67
2023/03/20 09:38:33;;;;;;;42.58;23.05;;;12.00;99.90;;;;;;5038845;28;20025;-67
2023/03/20 09:41:02;;;;;;;44.50;24.50;;;12.00;99.90;;;;;;5040791;28;20057;-68
2023/03/20 09:43:52;;;;;;;43.70;23.15;;;12.00;99.90;;;;;;5046898;28;20068;-69
2023/03/20 09:46:56;;;;;;;34.17;20.35;;;12.10;99.90;;;;;;5046080;28;20565;-68
2023/03/20 09:49:35;;;;;;;20.90;13.15;;;12.00;99.90;;;;;;5045490;28;20044;-69
2023/03/20 09:52:26;;;;;;;17.13;11.20;;;12.00;99.90;;;;;;5037833;28;20079;-69
2023/03/20 09:55:02;;;;;;;22.92;12.82;;;11.90;99.90;;;;;;5059088;28;20045;-69
2023/03/20 09:57:40;;;;;;;16.40;10.68;;;12.00;99.90;;;;;;5045992;28;20052;-70
2023/03/20 10:00:17;;;;;;;16.77;11.38;;;12.00;99.90;;;;;;5039550;28;20390;-69
2023/03/20 10:02:58;;;;;;;16.63;10.60;;;12.10;99.90;;;;;;5033968;28;20045;-69
2023/03/20 10:05:44;;;;;;;18.67;9.63;;;12.20;99.90;;;;;;5033980;28;20114;-70
2023/03/20 10:08:18;;;;;;;17.23;10.10;;;12.30;99.90;;;;;;5047973;28;20033;-70
2023/03/20 10:11:15;;;;;;;14.48;9.25;;;12.50;99.90;;;;;;5042935;28;20153;-70
2023/03/20 10:13:53;;;;;;;12.75;9.13;;;12.60;99.90;;;;;;5034874;28;20025;-69
2023/03/20 10:16:41;;;;;;;13.98;9.60;;;12.60;99.90;;;;;;5047033;28;20029;-70
2023/03/20 10:19:22;;;;;;;12.27;9.27;;;12.60;99.90;;;;;;5036591;28;20032;-70
2023/03/20 10:22:20;;;;;;;17.40;10.57;;;12.60;99.90;;;;;;5047711;28;20039;-71
2023/03/20 10:24:53;;;;;;;16.40;10.60;;;;;;;;;;5040373;28;20056;-70
2023/03/20 10:27:30;;;;;;;15.27;9.38;;;;;;;;;;5041850;28;20021;-70
2023/03/20 10:30:13;;;;;;;14.25;9.55;;;;;;;;;;5045927;28;20062;-70
2023/03/20 10:32:45;;;;;;;14.20;9.43;;;;;;;;;;5035059;28;20416;-69
2023/03/20 10:35:14;;;;;;;15.32;9.75;;;;;;;;;;5033351;28;20402;-73
2023/03/20 10:37:53;;;;;;;16.88;9.02;;;;;;;;;;5042993;28;20036;-71
2023/03/20 10:40:26;;;;;;;16.88;10.20;;;;;;;;;;5049704;28;20035;-69
2023/03/20 10:42:55;;;;;;;16.52;11.63;;;;;;;;;;5039088;28;20516;-72
2023/03/20 10:45:29;;;;;;;16.83;11.50;;;;;;;;;;5055406;28;20040;-73
2023/03/20 10:47:57;;;;;;;16.92;11.40;;;;;;;;;;5039640;28;20024;-70
2023/03/20 10:50:28;;;;;;;16.25;10.73;;;;;;;;;;5051752;28;20052;-69
2023/03/20 10:53:02;;;;;;;14.30;10.25;;;;;;;;;;5039004;28;20051;-70
2023/03/20 10:55:31;;;;;;;17.00;11.65;;;;;;;;;;5046430;28;20028;-69
2023/03/20 10:58:02;;;;;;;15.80;10.15;;;;;;;;;;5053690;28;20021;-70
2023/03/20 11:00:29;;;;;;;15.65;10.30;;;;;;;;;;5047986;28;20040;-69
2023/03/20 11:02:55;;;;;;;18.13;11.07;;;;;;;;;;5049394;28;20491;-70
2023/03/20 11:05:32;;;;;;;14.82;10.02;;;;;;;;;;5044522;28;20056;-69
2023/03/20 11:08:11;;;;;;;13.68;9.13;;;;;;;;;;5057806;28;20035;-69
2023/03/20 11:10:39;;;;;;;12.05;8.32;;;;;;;;;;5040816;28;20036;-69
2023/03/20 11:13:26;;;;;;;13.02;8.88;;;;;;;;;;5044536;28;20024;-70
2023/03/20 11:15:57;;;;;;;12.15;8.38;;;;;;;;;;5052423;28;20036;-71
2023/03/20 11:18:24;;;;;;;13.82;8.45;;;;;;;;;;5064908;28;20567;-70
2023/03/20 11:20:58;;;;;;;13.35;9.43;;;;;;;;;;5043869;28;20146;-69
2023/03/20 11:23:30;;;;;;;14.93;8.45;;;;;;;;;;5032190;28;20143;-69
2023/03/20 11:26:01;;;;;;;11.65;7.90;;;;;;;;;;5043271;28;20025;-69
2023/03/20 11:28:37;;;;;;;11.38;7.10;;;;;;;;;;5042152;28;20032;-69
2023/03/20 11:31:14;;;;;;;13.07;9.77;;;;;;;;;;5050080;28;20028;-68
2023/03/20 11:33:46;;;;;;;14.13;9.00;;;;;;;;;;5040552;28;20358;-69
2023/03/20 11:36:28;;;;;;;13.93;9.30;;;;;;;;;;5047991;28;20098;-69
2023/03/20 11:39:23;;;;;;;11.25;8.65;;;;;;;;;;5036710;28;20512;-69
2023/03/20 11:41:52;;;;;;;13.88;9.18;;;;;;;;;;5021070;28;20049;-68
2023/03/20 11:44:29;;;;;;;16.33;9.40;;;;;;;;;;5047275;28;20087;-68
2023/03/20 11:47:00;;;;;;;13.02;9.52;;;;;;;;;;5040141;28;20052;-68
2023/03/20 11:49:30;;;;;;;19.65;10.18;;;;;;;;;;5047896;28;20033;-68
2023/03/20 11:52:03;;;;;;;14.50;9.68;;;;;;;;;;5055272;28;20029;-70
2023/03/20 11:54:31;;;;;;;15.07;10.77;;;13.70;99.90;;;;;;5047025;28;20116;-69
2023/03/20 11:57:00;;;;;;;16.58;10.35;;;13.60;99.90;;;;;;5049749;28;20045;-69
2023/03/20 11:59:32;;;;;;;18.48;10.98;;;13.60;99.90;;;;;;5042078;28;20044;-69
2023/03/20 12:02:00;;;;;;;16.10;10.20;;;;;;;;;;5049837;28;20048;-69
2023/03/20 12:04:36;;;;;;;19.13;10.02;;;13.60;99.90;;;;;;5039666;28;20025;-68
2023/03/20 12:07:22;;;;;;;14.02;8.80;;;;;;;;;;5040827;28;20477;-68
2023/03/20 12:09:51;;;;;;;12.35;8.40;;;13.30;99.90;;;;;;5036885;28;20389;-69
2023/03/20 12:12:36;;;;;;;13.82;8.77;;;;;;;;;;5041309;28;20090;-70
2023/03/20 12:15:33;;;;;;;13.45;9.10;;;13.40;99.90;;;;;;5045792;28;20033;-70
2023/03/20 12:18:14;;;;;;;14.20;8.90;;;13.40;99.90;;;;;;5033831;28;20034;-70
2023/03/20 12:21:08;;;;;;;14.70;10.40;;;13.30;99.90;;;;;;5050076;28;20397;-69
2023/03/20 12:24:06;;;;;;;16.50;9.65;;;13.50;99.90;;;;;;5047120;28;20576;-69
2023/03/20 12:26:53;;;;;;;14.60;8.98;;;13.50;99.90;;;;;;5048470;28;20121;-69
2023/03/20 12:29:37;;;;;;;12.77;9.15;;;13.50;99.90;;;;;;5040489;28;20036;-69
2023/03/20 12:32:06;;;;;;;;;;;13.50;99.90;;;;;;5051411;28;20104;-69
2023/03/20 12:34:47;;;;;;;16.50;8.43;;;13.40;99.90;;;;;;5048447;28;19943;-69
2023/03/20 12:37:20;;;;;;;18.55;9.63;;;13.50;99.90;;;;;;5050460;28;20090;-69
2023/03/20 12:39:58;;;;;;;15.07;8.95;;;13.50;99.90;;;;;;5069978;28;20032;-69
2023/03/20 12:42:51;;;;;;;11.68;8.88;;;13.50;99.90;;;;;;5053315;28;20112;-69
2023/03/20 12:45:28;;;;;;;10.50;7.28;;;13.60;99.90;;;;;;5044883;28;20045;-70
2023/03/20 12:48:20;;;;;;;10.73;7.00;;;;;;;;;;5030891;28;20048;-70
2023/03/20 12:51:02;;;;;;;8.23;5.88;;;13.50;99.90;;;;;;5031538;28;20025;-69
2023/03/20 12:53:35;;;;;;;8.05;5.68;;;13.50;99.90;;;;;;5042838;28;20133;-69
2023/03/20 12:56:07;;;;;;;7.95;5.20;;;13.40;99.90;;;;;;5051797;28;20021;-69
2023/03/20 12:59:01;;;;;;;8.93;5.45;;;13.30;99.90;;;;;;5041270;28;20488;-70
2023/03/20 13:01:30;;;;;;;;;;;13.20;99.90;;;;;;5042155;28;20032;-69
2023/03/20 13:04:27;;;;;;;7.32;5.45;;;13.10;99.90;;;;;;5031853;28;19916;-69
2023/03/20 13:06:57;;;;;;;8.40;5.35;;;13.10;99.90;;;;;;5047655;28;20431;-70
2023/03/20 13:09:33;;;;;;;7.90;5.40;;;13.00;99.90;;;;;;5044327;28;20441;-69
2023/03/20 13:12:17;;;;;;;8.07;5.22;;;13.20;99.90;;;;;;5055351;28;20033;-70
2023/03/20 13:15:12;;;;;;;7.82;5.13;;;13.20;99.90;;;;;;5057296;28;20028;-69
2023/03/20 13:18:01;;;;;;;8.70;5.43;;;13.20;99.90;;;;;;5041851;28;20105;-69
2023/03/20 13:20:35;;;;;;;9.20;5.72;;;13.20;99.90;;;;;;5032384;28;20489;-70
2023/03/20 13:23:09;;;;;;;9.02;6.35;;;13.30;99.90;;;;;;5042664;28;20044;-70
2023/03/20 13:26:16;;;;;;;7.50;5.28;;;13.30;99.90;;;;;;5040992;28;20025;-70
2023/03/20 13:29:02;;;;;;;7.22;5.10;;;13.30;99.90;;;;;;5044605;28;20025;-70
2023/03/20 13:31:54;;;;;;;7.97;5.22;;;13.30;99.90;;;;;;5049038;28;20108;-69
2023/03/20 13:34:34;;;;;;;8.00;5.28;;;13.30;99.90;;;;;;5045323;28;20094;-69
2023/03/20 13:37:22;;;;;;;8.68;5.75;;;13.20;99.90;;;;;;5044444;28;20037;-69
2023/03/20 13:40:05;;;;;;;9.32;5.72;;;;;;;;;;5046024;28;20045;-69
2023/03/20 13:42:40;;;;;;;;;;;13.20;99.90;;;;;;5049271;28;20108;-69
2023/03/20 13:45:13;;;;;;;7.15;4.55;;;;;;;;;;5042908;28;19995;-69
2023/03/20 13:47:51;;;;;;;7.43;4.25;;;13.20;99.90;;;;;;5041232;28;20381;-69
2023/03/20 13:50:47;;;;;;;7.78;4.60;;;13.10;99.90;;;;;;5043233;28;20636;-69
2023/03/20 13:53:45;;;;;;;7.38;4.32;;;13.10;99.90;;;;;;5050716;28;20059;-69
2023/03/20 13:56:11;;;;;;;10.25;4.50;;;13.10;99.90;;;;;;5035968;28;20033;-69
2023/03/20 13:58:52;;;;;;;8.27;4.95;;;13.00;99.90;;;;;;5037936;28;20090;-69
2023/03/20 14:01:49;;;;;;;10.63;5.05;;;13.10;99.90;;;;;;4694975;28;9999753;-67
2023/03/20 14:04:20;;;;;;;9.60;5.38;;;13.10;99.90;;;;;;5035595;28;20034;-67
2023/03/20 14:06:51;;;;;;;7.15;5.25;;;;;;;;;;5039835;28;20039;-67
2023/03/20 14:09:36;;;;;;;8.32;4.97;;;;;;;;;;5032449;28;20029;-67
2023/03/20 14:12:18;;;;;;;7.80;5.00;;;;;;;;;;5045305;28;20025;-67